New York, New York
Traffic Map
Current Weather Conditions
New York, New York
Clear
Clear
24°
Feels Like: 24°
Wind Chill: 24° Ceiling: Unl
Heat Index: 24° Visibility: 10mi
Dew Point: 17° Wind: 0mph
Humidity: 66% Direction: ° ()
Pressure: 30.11in Gusts: 0mph
Raw Report DataKNYC 241251Z AUTO 00000KT 10SM CLR 24/17 A3011 RMK AO2 SLP186 T02390172
Traffic Incident Summary
Active as of:
Severity:
Category:
InformationThere was an issue retrieving the traffic information for this location. Please try a different location or try again shortly.
Advertisements